<?xml version="1.0" encoding="UTF-8" standalone="no" ?><gpx xmlns="http://www.topografix.com/GPX/1/1" xmlns:gpxx="http://www.garmin.com/xmlschemas/GpxExtensions/v3" xmlns:wptx1="http://www.garmin.com/xmlschemas/WaypointExtension/v1" xmlns:gpxtpx="http://www.garmin.com/xmlschemas/TrackPointExtension/v1" creator="Dakota 20" version="1.1" xmlns:xsi="http://www.w3.org/2001/XMLSchema-instance" xsi:schemaLocation="http://www.topografix.com/GPX/1/1 http://www.topografix.com/GPX/1/1/gpx.xsd http://www.garmin.com/xmlschemas/GpxExtensions/v3 http://www8.garmin.com/xmlschemas/GpxExtensionsv3.xsd http://www.garmin.com/xmlschemas/WaypointExtension/v1 http://www8.garmin.com/xmlschemas/WaypointExtensionv1.xsd http://www.garmin.com/xmlschemas/TrackPointExtension/v1 http://www.garmin.com/xmlschemas/TrackPointExtensionv1.xsd"><metadata><link href="http://www.garmin.com"><text>Garmin International</text></link><time>2015-09-17T10:27:54Z</time></metadata><trk><name>Current Track: 16 SEP 2015 10:40</name><extensions><gpxx:TrackExtension><gpxx:DisplayColor>Cyan</gpxx:DisplayColor></gpxx:TrackExtension></extensions><trkseg><trkpt lat="51.7127054930" lon="-2.2690661810"><ele>321.22</ele><time>2015-09-16T09:40:21Z</time></trkpt><trkpt lat="51.7127049062" lon="-2.2690224275"><ele>321.22</ele><time>2015-09-16T09:40:22Z</time></trkpt><trkpt lat="51.7127230112" lon="-2.2689505108"><ele>321.22</ele><time>2015-09-16T09:40:24Z</time></trkpt><trkpt lat="51.7127568740" lon="-2.2687973734"><ele>321.22</ele><time>2015-09-16T09:40:32Z</time></trkpt><trkpt lat="51.7127769068" lon="-2.2687742393"><ele>320.74</ele><time>2015-09-16T09:40:34Z</time></trkpt><trkpt lat="51.7128519248" lon="-2.2686434817"><ele>320.26</ele><time>2015-09-16T09:40:45Z</time></trkpt><trkpt lat="51.7128816806" lon="-2.2684685513"><ele>318.81</ele><time>2015-09-16T09:40:54Z</time></trkpt><trkpt lat="51.7128341552" lon="-2.2682273202"><ele>316.89</ele><time>2015-09-16T09:41:08Z</time></trkpt><trkpt lat="51.7127039004" lon="-2.2680716682"><ele>315.45</ele><time>2015-09-16T09:41:24Z</time></trkpt><trkpt lat="51.7126668524" lon="-2.2679765336"><ele>314.97</ele><time>2015-09-16T09:41:30Z</time></trkpt><trkpt lat="51.7125555407" lon="-2.2676707618"><ele>312.09</ele><time>2015-09-16T09:41:46Z</time></trkpt><trkpt lat="51.7125323229" lon="-2.2675890382"><ele>312.09</ele><time>2015-09-16T09:41:51Z</time></trkpt><trkpt lat="51.7125257850" lon="-2.2675254196"><ele>311.60</ele><time>2015-09-16T09:41:54Z</time></trkpt><trkpt lat="51.7124936823" lon="-2.2672784887"><ele>309.68</ele><time>2015-09-16T09:42:10Z</time></trkpt><trkpt lat="51.7125034053" lon="-2.2671870422"><ele>308.72</ele><time>2015-09-16T09:42:22Z</time></trkpt><trkpt lat="51.7124961969" lon="-2.2671595495"><ele>308.72</ele><time>2015-09-16T09:42:24Z</time></trkpt><trkpt lat="51.7124887370" lon="-2.2671242617"><ele>308.24</ele><time>2015-09-16T09:42:26Z</time></trkpt><trkpt lat="51.7124272976" lon="-2.2668364272"><ele>307.28</ele><time>2015-09-16T09:42:40Z</time></trkpt><trkpt lat="51.7123734858" lon="-2.2666179109"><ele>307.28</ele><time>2015-09-16T09:42:51Z</time></trkpt><trkpt lat="51.7123598233" lon="-2.2665541247"><ele>307.28</ele><time>2015-09-16T09:42:55Z</time></trkpt><trkpt lat="51.7123435624" lon="-2.2664507758"><ele>306.80</ele><time>2015-09-16T09:43:01Z</time></trkpt><trkpt lat="51.7123311572" lon="-2.2663788591"><ele>306.80</ele><time>2015-09-16T09:43:04Z</time></trkpt><trkpt lat="51.7122187559" lon="-2.2661241330"><ele>305.84</ele><time>2015-09-16T09:43:18Z</time></trkpt><trkpt lat="51.7121369485" lon="-2.2659408208"><ele>305.84</ele><time>2015-09-16T09:43:27Z</time></trkpt><trkpt lat="51.7120969668" lon="-2.2657300159"><ele>304.88</ele><time>2015-09-16T09:43:40Z</time></trkpt><trkpt lat="51.7120131478" lon="-2.2654480487"><ele>302.47</ele><time>2015-09-16T09:43:54Z</time></trkpt><trkpt lat="51.7119855713" lon="-2.2651203163"><ele>300.55</ele><time>2015-09-16T09:44:11Z</time></trkpt><trkpt lat="51.7121299077" lon="-2.2648798395"><ele>298.63</ele><time>2015-09-16T09:44:29Z</time></trkpt><trkpt lat="51.7122720648" lon="-2.2647766583"><ele>296.70</ele><time>2015-09-16T09:44:45Z</time></trkpt><trkpt lat="51.7125280481" lon="-2.2646101937"><ele>295.74</ele><time>2015-09-16T09:45:00Z</time></trkpt><trkpt lat="51.7125912476" lon="-2.2645512689"><ele>294.78</ele><time>2015-09-16T09:45:06Z</time></trkpt><trkpt lat="51.7127282917" lon="-2.2643666994"><ele>293.34</ele><time>2015-09-16T09:45:22Z</time></trkpt><trkpt lat="51.7127718776" lon="-2.2643345129"><ele>293.34</ele><time>2015-09-16T09:45:26Z</time></trkpt><trkpt lat="51.7129218299" lon="-2.2642530408"><ele>292.86</ele><time>2015-09-16T09:45:37Z</time></trkpt><trkpt lat="51.7130432837" lon="-2.2640528809"><ele>291.90</ele><time>2015-09-16T09:45:51Z</time></trkpt><trkpt lat="51.7130544316" lon="-2.2640328482"><ele>291.42</ele><time>2015-09-16T09:45:53Z</time></trkpt><trkpt lat="51.7130661663" lon="-2.2640088759"><ele>291.42</ele><time>2015-09-16T09:45:55Z</time></trkpt><trkpt lat="51.7130993586" lon="-2.2639813833"><ele>291.42</ele><time>2015-09-16T09:46:00Z</time></trkpt><trkpt lat="51.7130433675" lon="-2.2637953889"><ele>290.46</ele><time>2015-09-16T09:46:15Z</time></trkpt><trkpt lat="51.7129419465" lon="-2.2637516353"><ele>289.97</ele><time>2015-09-16T09:46:24Z</time></trkpt><trkpt lat="51.7127358355" lon="-2.2637236398"><ele>288.53</ele><time>2015-09-16T09:46:39Z</time></trkpt><trkpt lat="51.7125595640" lon="-2.2637321893"><ele>287.57</ele><time>2015-09-16T09:46:54Z</time></trkpt><trkpt lat="51.7123963684" lon="-2.2637124080"><ele>286.61</ele><time>2015-09-16T09:47:09Z</time></trkpt><trkpt lat="51.7122527026" lon="-2.2636047006"><ele>285.65</ele><time>2015-09-16T09:47:23Z</time></trkpt><trkpt lat="51.7122262157" lon="-2.2635810636"><ele>285.65</ele><time>2015-09-16T09:47:25Z</time></trkpt><trkpt lat="51.7120398022" lon="-2.2634085640"><ele>284.69</ele><time>2015-09-16T09:47:39Z</time></trkpt><trkpt lat="51.7119661253" lon="-2.2632921394"><ele>284.21</ele><time>2015-09-16T09:47:52Z</time></trkpt><trkpt lat="51.7119412310" lon="-2.2632627189"><ele>282.77</ele><time>2015-09-16T09:48:07Z</time></trkpt><trkpt lat="51.7119280715" lon="-2.2632785607"><ele>279.88</ele><time>2015-09-16T09:48:30Z</time></trkpt><trkpt lat="51.7119128164" lon="-2.2632747050"><ele>277.48</ele><time>2015-09-16T09:48:58Z</time></trkpt><trkpt lat="51.7119037639" lon="-2.2632768843"><ele>275.56</ele><time>2015-09-16T09:49:24Z</time></trkpt><trkpt lat="51.7119175941" lon="-2.2632879484"><ele>273.15</ele><time>2015-09-16T09:49:54Z</time></trkpt><trkpt lat="51.7119100504" lon="-2.2632757947"><ele>271.23</ele><time>2015-09-16T09:50:20Z</time></trkpt><trkpt lat="51.7119066976" lon="-2.2632802371"><ele>268.35</ele><time>2015-09-16T09:50:45Z</time></trkpt><trkpt lat="51.7119010817" lon="-2.2632793989"><ele>266.90</ele><time>2015-09-16T09:51:05Z</time></trkpt><trkpt lat="51.7119026743" lon="-2.2632817458"><ele>265.94</ele><time>2015-09-16T09:51:19Z</time></trkpt><trkpt lat="51.7119040992" lon="-2.2632835060"><ele>264.50</ele><time>2015-09-16T09:51:43Z</time></trkpt><trkpt lat="51.7119035125" lon="-2.2632828355"><ele>262.10</ele><time>2015-09-16T09:52:08Z</time></trkpt><trkpt lat="51.7119032610" lon="-2.2632830869"><ele>259.69</ele><time>2015-09-16T09:52:34Z</time></trkpt><trkpt lat="51.7118578311" lon="-2.2632567678"><ele>256.81</ele><time>2015-09-16T09:53:01Z</time></trkpt><trkpt lat="51.7117682286" lon="-2.2632313706"><ele>253.93</ele><time>2015-09-16T09:53:17Z</time></trkpt><trkpt lat="51.7116194498" lon="-2.2631749604"><ele>251.04</ele><time>2015-09-16T09:53:31Z</time></trkpt><trkpt lat="51.7115827370" lon="-2.2631492279"><ele>249.60</ele><time>2015-09-16T09:53:36Z</time></trkpt><trkpt lat="51.7115330324" lon="-2.2631224059"><ele>248.16</ele><time>2015-09-16T09:53:43Z</time></trkpt><trkpt lat="51.7114267498" lon="-2.2631027084"><ele>245.27</ele><time>2015-09-16T09:53:59Z</time></trkpt><trkpt lat="51.7114331201" lon="-2.2630355693"><ele>241.91</ele><time>2015-09-16T09:54:15Z</time></trkpt><trkpt lat="51.7113823257" lon="-2.2628502455"><ele>239.02</ele><time>2015-09-16T09:54:27Z</time></trkpt><trkpt lat="51.7113556713" lon="-2.2627297137"><ele>238.06</ele><time>2015-09-16T09:54:34Z</time></trkpt><trkpt lat="51.7113322020" lon="-2.2624636721"><ele>238.06</ele><time>2015-09-16T09:54:52Z</time></trkpt><trkpt lat="51.7112817429" lon="-2.2621896677"><ele>234.70</ele><time>2015-09-16T09:55:10Z</time></trkpt><trkpt lat="51.7112615425" lon="-2.2621507756"><ele>236.14</ele><time>2015-09-16T09:55:12Z</time></trkpt><trkpt lat="51.7111436930" lon="-2.2618574090"><ele>235.66</ele><time>2015-09-16T09:55:31Z</time></trkpt><trkpt lat="51.7111308686" lon="-2.2618037648"><ele>234.22</ele><time>2015-09-16T09:55:34Z</time></trkpt><trkpt lat="51.7110074870" lon="-2.2616228834"><ele>232.30</ele><time>2015-09-16T09:55:48Z</time></trkpt><trkpt lat="51.7109917291" lon="-2.2616024315"><ele>233.26</ele><time>2015-09-16T09:55:50Z</time></trkpt><trkpt lat="51.7108460516" lon="-2.2613907885"><ele>229.89</ele><time>2015-09-16T09:56:09Z</time></trkpt><trkpt lat="51.7108390946" lon="-2.2613764554"><ele>229.89</ele><time>2015-09-16T09:56:10Z</time></trkpt><trkpt lat="51.7107418645" lon="-2.2611475457"><ele>227.97</ele><time>2015-09-16T09:56:25Z</time></trkpt><trkpt lat="51.7106434610" lon="-2.2610019520"><ele>223.16</ele><time>2015-09-16T09:56:42Z</time></trkpt><trkpt lat="51.7105751485" lon="-2.2608981840"><ele>226.53</ele><time>2015-09-16T09:56:51Z</time></trkpt><trkpt lat="51.7105544452" lon="-2.2608862817"><ele>222.68</ele><time>2015-09-16T09:56:53Z</time></trkpt><trkpt lat="51.7105388548" lon="-2.2608654108"><ele>226.53</ele><time>2015-09-16T09:56:56Z</time></trkpt><trkpt lat="51.7104787566" lon="-2.2607459687"><ele>223.64</ele><time>2015-09-16T09:57:06Z</time></trkpt><trkpt lat="51.7104114499" lon="-2.2605428752"><ele>223.64</ele><time>2015-09-16T09:57:24Z</time></trkpt><trkpt lat="51.7103398684" lon="-2.2603814397"><ele>221.72</ele><time>2015-09-16T09:57:33Z</time></trkpt><trkpt lat="51.7102324963" lon="-2.2600716446"><ele>220.28</ele><time>2015-09-16T09:57:53Z</time></trkpt><trkpt lat="51.7101725657" lon="-2.2598871589"><ele>217.40</ele><time>2015-09-16T09:58:04Z</time></trkpt><trkpt lat="51.7101940233" lon="-2.2598069441"><ele>218.36</ele><time>2015-09-16T09:58:11Z</time></trkpt><trkpt lat="51.7101736553" lon="-2.2596545611"><ele>217.88</ele><time>2015-09-16T09:58:20Z</time></trkpt><trkpt lat="51.7100558057" lon="-2.2593548242"><ele>214.51</ele><time>2015-09-16T09:58:38Z</time></trkpt><trkpt lat="51.7100376170" lon="-2.2593145911"><ele>214.99</ele><time>2015-09-16T09:58:41Z</time></trkpt><trkpt lat="51.7099824641" lon="-2.2591892816"><ele>214.51</ele><time>2015-09-16T09:58:47Z</time></trkpt><trkpt lat="51.7099536303" lon="-2.2589075658"><ele>214.03</ele><time>2015-09-16T09:59:06Z</time></trkpt><trkpt lat="51.7099280655" lon="-2.2586024646"><ele>212.59</ele><time>2015-09-16T09:59:24Z</time></trkpt><trkpt lat="51.7098549753" lon="-2.2583921626"><ele>209.70</ele><time>2015-09-16T09:59:46Z</time></trkpt><trkpt lat="51.7097901832" lon="-2.2582277935"><ele>209.70</ele><time>2015-09-16T09:59:54Z</time></trkpt><trkpt lat="51.7097697314" lon="-2.2580257896"><ele>209.22</ele><time>2015-09-16T10:00:11Z</time></trkpt><trkpt lat="51.7096461821" lon="-2.2577509470"><ele>208.26</ele><time>2015-09-16T10:00:28Z</time></trkpt><trkpt lat="51.7095140833" lon="-2.2576859035"><ele>207.30</ele><time>2015-09-16T10:00:42Z</time></trkpt><trkpt lat="51.7094716709" lon="-2.2576778568"><ele>206.34</ele><time>2015-09-16T10:00:52Z</time></trkpt><trkpt lat="51.7094606068" lon="-2.2577869892"><ele>205.38</ele><time>2015-09-16T10:01:10Z</time></trkpt><trkpt lat="51.7094549909" lon="-2.2577969637"><ele>205.38</ele><time>2015-09-16T10:01:11Z</time></trkpt><trkpt lat="51.7094000056" lon="-2.2578677069"><ele>204.42</ele><time>2015-09-16T10:01:18Z</time></trkpt><trkpt lat="51.7093178630" lon="-2.2579728160"><ele>203.46</ele><time>2015-09-16T10:01:31Z</time></trkpt><trkpt lat="51.7093104031" lon="-2.2579817846"><ele>202.49</ele><time>2015-09-16T10:01:40Z</time></trkpt><trkpt lat="51.7092867661" lon="-2.2580073494"><ele>203.46</ele><time>2015-09-16T10:01:43Z</time></trkpt><trkpt lat="51.7091399990" lon="-2.2581172362"><ele>202.01</ele><time>2015-09-16T10:02:00Z</time></trkpt><trkpt lat="51.7091042921" lon="-2.2581606545"><ele>200.57</ele><time>2015-09-16T10:02:17Z</time></trkpt><trkpt lat="51.7090796493" lon="-2.2581873927"><ele>202.01</ele><time>2015-09-16T10:02:20Z</time></trkpt><trkpt lat="51.7089479696" lon="-2.2583001293"><ele>200.09</ele><time>2015-09-16T10:02:35Z</time></trkpt><trkpt lat="51.7088540923" lon="-2.2584119439"><ele>198.65</ele><time>2015-09-16T10:02:49Z</time></trkpt><trkpt lat="51.7088246718" lon="-2.2584180627"><ele>197.21</ele><time>2015-09-16T10:03:10Z</time></trkpt><trkpt lat="51.7088830937" lon="-2.2584287077"><ele>196.25</ele><time>2015-09-16T10:03:16Z</time></trkpt><trkpt lat="51.7089438625" lon="-2.2583211679"><ele>197.21</ele><time>2015-09-16T10:03:32Z</time></trkpt><trkpt lat="51.7090788949" lon="-2.2582441382"><ele>196.25</ele><time>2015-09-16T10:03:48Z</time></trkpt><trkpt lat="51.7090760451" lon="-2.2582466528"><ele>192.88</ele><time>2015-09-16T10:03:50Z</time></trkpt><trkpt lat="51.7090771347" lon="-2.2582493350"><ele>196.73</ele><time>2015-09-16T10:03:51Z</time></trkpt><trkpt lat="51.7091653123" lon="-2.2581220977"><ele>196.25</ele><time>2015-09-16T10:04:08Z</time></trkpt><trkpt lat="51.7093524802" lon="-2.2579727322"><ele>194.32</ele><time>2015-09-16T10:04:27Z</time></trkpt><trkpt lat="51.7093938030" lon="-2.2578988876"><ele>194.32</ele><time>2015-09-16T10:04:35Z</time></trkpt><trkpt lat="51.7094988283" lon="-2.2577724885"><ele>191.92</ele><time>2015-09-16T10:04:48Z</time></trkpt><trkpt lat="51.7095184419" lon="-2.2576153278"><ele>193.36</ele><time>2015-09-16T10:05:05Z</time></trkpt><trkpt lat="51.7095156759" lon="-2.2576188482"><ele>186.63</ele><time>2015-09-16T10:05:30Z</time></trkpt><trkpt lat="51.7095157597" lon="-2.2576196864"><ele>193.84</ele><time>2015-09-16T10:05:31Z</time></trkpt><trkpt lat="51.7095331103" lon="-2.2576370370"><ele>190.48</ele><time>2015-09-16T10:05:33Z</time></trkpt><trkpt lat="51.7095734272" lon="-2.2576696426"><ele>193.84</ele><time>2015-09-16T10:05:53Z</time></trkpt><trkpt lat="51.7095720861" lon="-2.2576677985"><ele>189.04</ele><time>2015-09-16T10:05:54Z</time></trkpt><trkpt lat="51.7095425818" lon="-2.2576543037"><ele>188.56</ele><time>2015-09-16T10:06:23Z</time></trkpt><trkpt lat="51.7095479462" lon="-2.2576502804"><ele>187.11</ele><time>2015-09-16T10:06:48Z</time></trkpt><trkpt lat="51.7095123231" lon="-2.2576035932"><ele>186.63</ele><time>2015-09-16T10:07:11Z</time></trkpt><trkpt lat="51.7094052862" lon="-2.2575345263"><ele>185.67</ele><time>2015-09-16T10:07:39Z</time></trkpt><trkpt lat="51.7094234750" lon="-2.2575915232"><ele>183.75</ele><time>2015-09-16T10:08:02Z</time></trkpt><trkpt lat="51.7094572540" lon="-2.2575708199"><ele>183.27</ele><time>2015-09-16T10:08:25Z</time></trkpt><trkpt lat="51.7094274145" lon="-2.2575799562"><ele>189.52</ele><time>2015-09-16T10:08:43Z</time></trkpt><trkpt lat="51.7094269954" lon="-2.2575807944"><ele>182.79</ele><time>2015-09-16T10:08:44Z</time></trkpt><trkpt lat="51.7094264086" lon="-2.2575822193"><ele>182.31</ele><time>2015-09-16T10:08:46Z</time></trkpt><trkpt lat="51.7093775421" lon="-2.2576040961"><ele>179.90</ele><time>2015-09-16T10:09:14Z</time></trkpt><trkpt lat="51.7093178630" lon="-2.2575365379"><ele>180.87</ele><time>2015-09-16T10:09:32Z</time></trkpt><trkpt lat="51.7093575094" lon="-2.2575771064"><ele>179.90</ele><time>2015-09-16T10:09:58Z</time></trkpt><trkpt lat="51.7093700822" lon="-2.2575540561"><ele>178.46</ele><time>2015-09-16T10:10:23Z</time></trkpt><trkpt lat="51.7093673162" lon="-2.2575059440"><ele>177.98</ele><time>2015-09-16T10:10:46Z</time></trkpt><trkpt lat="51.7093358003" lon="-2.2575379629"><ele>177.50</ele><time>2015-09-16T10:11:15Z</time></trkpt><trkpt lat="51.7094892729" lon="-2.2576453350"><ele>177.02</ele><time>2015-09-16T10:11:38Z</time></trkpt><trkpt lat="51.7094767001" lon="-2.2576495260"><ele>175.58</ele><time>2015-09-16T10:12:04Z</time></trkpt><trkpt lat="51.7095182743" lon="-2.2576452512"><ele>175.10</ele><time>2015-09-16T10:12:27Z</time></trkpt><trkpt lat="51.7095269077" lon="-2.2576312535"><ele>173.66</ele><time>2015-09-16T10:12:46Z</time></trkpt><trkpt lat="51.7094412446" lon="-2.2575821355"><ele>173.66</ele><time>2015-09-16T10:12:54Z</time></trkpt><trkpt lat="51.7094109859" lon="-2.2575671319"><ele>173.17</ele><time>2015-09-16T10:13:19Z</time></trkpt><trkpt lat="51.7093543243" lon="-2.2575542238"><ele>172.21</ele><time>2015-09-16T10:13:44Z</time></trkpt><trkpt lat="51.7094197869" lon="-2.2576159984"><ele>171.25</ele><time>2015-09-16T10:14:01Z</time></trkpt><trkpt lat="51.7094402388" lon="-2.2576212790"><ele>170.29</ele><time>2015-09-16T10:14:27Z</time></trkpt><trkpt lat="51.7094466090" lon="-2.2576089576"><ele>170.29</ele><time>2015-09-16T10:14:52Z</time></trkpt><trkpt lat="51.7094206251" lon="-2.2575917747"><ele>169.33</ele><time>2015-09-16T10:15:17Z</time></trkpt><trkpt lat="51.7094385624" lon="-2.2576185968"><ele>168.37</ele><time>2015-09-16T10:15:39Z</time></trkpt><trkpt lat="51.7094405740" lon="-2.2576492745"><ele>168.85</ele><time>2015-09-16T10:15:42Z</time></trkpt><trkpt lat="51.7094152607" lon="-2.2578929365"><ele>167.89</ele><time>2015-09-16T10:15:56Z</time></trkpt><trkpt lat="51.7093536537" lon="-2.2579713911"><ele>167.41</ele><time>2015-09-16T10:16:11Z</time></trkpt><trkpt lat="51.7093238141" lon="-2.2579842154"><ele>167.41</ele><time>2015-09-16T10:16:14Z</time></trkpt><trkpt lat="51.7091508955" lon="-2.2581179906"><ele>166.45</ele><time>2015-09-16T10:16:31Z</time></trkpt><trkpt lat="51.7090575211" lon="-2.2582137957"><ele>165.48</ele><time>2015-09-16T10:16:51Z</time></trkpt><trkpt lat="51.7090155277" lon="-2.2582598124"><ele>170.77</ele><time>2015-09-16T10:17:03Z</time></trkpt><trkpt lat="51.7090160307" lon="-2.2582603153"><ele>165.96</ele><time>2015-09-16T10:17:04Z</time></trkpt><trkpt lat="51.7090523243" lon="-2.2582247760"><ele>164.52</ele><time>2015-09-16T10:17:28Z</time></trkpt><trkpt lat="51.7090809066" lon="-2.2582418751"><ele>164.04</ele><time>2015-09-16T10:17:45Z</time></trkpt><trkpt lat="51.7090480495" lon="-2.2582689486"><ele>162.12</ele><time>2015-09-16T10:18:07Z</time></trkpt><trkpt lat="51.7090226524" lon="-2.2582646739"><ele>162.60</ele><time>2015-09-16T10:18:09Z</time></trkpt><trkpt lat="51.7089417670" lon="-2.2583016381"><ele>162.60</ele><time>2015-09-16T10:18:16Z</time></trkpt><trkpt lat="51.7087939940" lon="-2.2584831901"><ele>161.64</ele><time>2015-09-16T10:18:32Z</time></trkpt><trkpt lat="51.7087289505" lon="-2.2585559450"><ele>161.16</ele><time>2015-09-16T10:18:39Z</time></trkpt><trkpt lat="51.7086528428" lon="-2.2585863713"><ele>162.12</ele><time>2015-09-16T10:18:58Z</time></trkpt><trkpt lat="51.7086585425" lon="-2.2585862037"><ele>162.60</ele><time>2015-09-16T10:19:20Z</time></trkpt><trkpt lat="51.7084194906" lon="-2.2585383430"><ele>162.12</ele><time>2015-09-16T10:19:41Z</time></trkpt><trkpt lat="51.7083956022" lon="-2.2585296258"><ele>162.60</ele><time>2015-09-16T10:19:43Z</time></trkpt><trkpt lat="51.7081908323" lon="-2.2586160433"><ele>163.08</ele><time>2015-09-16T10:20:03Z</time></trkpt><trkpt lat="51.7081447318" lon="-2.2586623952"><ele>162.12</ele><time>2015-09-16T10:20:10Z</time></trkpt><trkpt lat="51.7081374396" lon="-2.2586696874"><ele>165.00</ele><time>2015-09-16T10:20:12Z</time></trkpt><trkpt lat="51.7081328295" lon="-2.2586641554"><ele>161.64</ele><time>2015-09-16T10:20:13Z</time></trkpt><trkpt lat="51.7081198376" lon="-2.2586660832"><ele>165.00</ele><time>2015-09-16T10:20:15Z</time></trkpt><trkpt lat="51.7081096955" lon="-2.2586711124"><ele>160.68</ele><time>2015-09-16T10:20:16Z</time></trkpt><trkpt lat="51.7080911715" lon="-2.2586833499"><ele>164.04</ele><time>2015-09-16T10:20:18Z</time></trkpt><trkpt lat="51.7080425564" lon="-2.2587176319"><ele>164.52</ele><time>2015-09-16T10:20:22Z</time></trkpt><trkpt lat="51.7080153991" lon="-2.2587258462"><ele>160.68</ele><time>2015-09-16T10:20:24Z</time></trkpt><trkpt lat="51.7079273891" lon="-2.2587720305"><ele>165.00</ele><time>2015-09-16T10:20:33Z</time></trkpt><trkpt lat="51.7079084460" lon="-2.2587582003"><ele>160.20</ele><time>2015-09-16T10:20:35Z</time></trkpt><trkpt lat="51.7078998126" lon="-2.2587540094"><ele>163.56</ele><time>2015-09-16T10:20:36Z</time></trkpt><trkpt lat="51.7079198454" lon="-2.2587856092"><ele>163.56</ele><time>2015-09-16T10:20:55Z</time></trkpt><trkpt lat="51.7078900058" lon="-2.2587517463"><ele>164.52</ele><time>2015-09-16T10:21:02Z</time></trkpt><trkpt lat="51.7078489345" lon="-2.2586845234"><ele>165.48</ele><time>2015-09-16T10:21:07Z</time></trkpt><trkpt lat="51.7078092042" lon="-2.2585979383"><ele>165.96</ele><time>2015-09-16T10:21:12Z</time></trkpt><trkpt lat="51.7077863216" lon="-2.2585147060"><ele>166.45</ele><time>2015-09-16T10:21:30Z</time></trkpt><trkpt lat="51.7077474296" lon="-2.2582210042"><ele>165.96</ele><time>2015-09-16T10:21:49Z</time></trkpt><trkpt lat="51.7077192664" lon="-2.2581239417"><ele>165.96</ele><time>2015-09-16T10:22:10Z</time></trkpt><trkpt lat="51.7076857388" lon="-2.2580384463"><ele>165.00</ele><time>2015-09-16T10:22:33Z</time></trkpt><trkpt lat="51.7075848207" lon="-2.2578772623"><ele>165.00</ele><time>2015-09-16T10:22:52Z</time></trkpt><trkpt lat="51.7074591760" lon="-2.2578743286"><ele>165.96</ele><time>2015-09-16T10:23:07Z</time></trkpt><trkpt lat="51.7074248102" lon="-2.2578910924"><ele>165.00</ele><time>2015-09-16T10:23:10Z</time></trkpt><trkpt lat="51.7073699925" lon="-2.2580717225"><ele>167.89</ele><time>2015-09-16T10:23:18Z</time></trkpt><trkpt lat="51.7072629556" lon="-2.2583488282"><ele>167.89</ele><time>2015-09-16T10:23:39Z</time></trkpt><trkpt lat="51.7073172703" lon="-2.2584267799"><ele>165.96</ele><time>2015-09-16T10:23:59Z</time></trkpt><trkpt lat="51.7073243950" lon="-2.2584436275"><ele>167.89</ele><time>2015-09-16T10:24:02Z</time></trkpt><trkpt lat="51.7073620297" lon="-2.2586316336"><ele>166.45</ele><time>2015-09-16T10:24:20Z</time></trkpt><trkpt lat="51.7073767819" lon="-2.2586571146"><ele>167.41</ele><time>2015-09-16T10:24:22Z</time></trkpt><trkpt lat="51.7076303344" lon="-2.2590164468"><ele>166.45</ele><time>2015-09-16T10:24:42Z</time></trkpt><trkpt lat="51.7076627724" lon="-2.2590192966"><ele>167.89</ele><time>2015-09-16T10:24:51Z</time></trkpt><trkpt lat="51.7076641135" lon="-2.2590232361"><ele>166.45</ele><time>2015-09-16T10:24:54Z</time></trkpt><trkpt lat="51.7077807058" lon="-2.2591716796"><ele>166.45</ele><time>2015-09-16T10:25:14Z</time></trkpt><trkpt lat="51.7080590688" lon="-2.2594629508"><ele>165.96</ele><time>2015-09-16T10:25:34Z</time></trkpt><trkpt lat="51.7080631759" lon="-2.2593034431"><ele>165.96</ele><time>2015-09-16T10:25:54Z</time></trkpt><trkpt lat="51.7080532014" lon="-2.2593124956"><ele>165.48</ele><time>2015-09-16T10:26:17Z</time></trkpt><trkpt lat="51.7080787662" lon="-2.2591731884"><ele>164.04</ele><time>2015-09-16T10:26:41Z</time></trkpt><trkpt lat="51.7080557160" lon="-2.2592849191"><ele>164.52</ele><time>2015-09-16T10:26:45Z</time></trkpt><trkpt lat="51.7080749106" lon="-2.2593471967"><ele>165.00</ele><time>2015-09-16T10:27:07Z</time></trkpt><trkpt lat="51.7081428040" lon="-2.2594730929"><ele>164.52</ele><time>2015-09-16T10:27:27Z</time></trkpt><trkpt lat="51.7081315722" lon="-2.2594991606"><ele>164.04</ele><time>2015-09-16T10:27:50Z</time></trkpt><trkpt lat="51.7081355955" lon="-2.2594632022"><ele>163.56</ele><time>2015-09-16T10:28:15Z</time></trkpt><trkpt lat="51.7081085220" lon="-2.2594706621"><ele>163.56</ele><time>2015-09-16T10:28:35Z</time></trkpt><trkpt lat="51.7082308140" lon="-2.2597880010"><ele>163.56</ele><time>2015-09-16T10:28:56Z</time></trkpt><trkpt lat="51.7082586419" lon="-2.2600400448"><ele>165.96</ele><time>2015-09-16T10:29:18Z</time></trkpt><trkpt lat="51.7083203327" lon="-2.2602469940"><ele>165.48</ele><time>2015-09-16T10:29:40Z</time></trkpt><trkpt lat="51.7083344981" lon="-2.2602920886"><ele>164.52</ele><time>2015-09-16T10:29:46Z</time></trkpt><trkpt lat="51.7084924132" lon="-2.2606987786"><ele>165.96</ele><time>2015-09-16T10:30:07Z</time></trkpt><trkpt lat="51.7084843665" lon="-2.2610171232"><ele>165.48</ele><time>2015-09-16T10:30:28Z</time></trkpt><trkpt lat="51.7084826902" lon="-2.2610176262"><ele>163.56</ele><time>2015-09-16T10:30:31Z</time></trkpt><trkpt lat="51.7084822711" lon="-2.2610185482"><ele>165.48</ele><time>2015-09-16T10:30:34Z</time></trkpt><trkpt lat="51.7085430399" lon="-2.2612477932"><ele>162.60</ele><time>2015-09-16T10:30:50Z</time></trkpt><trkpt lat="51.7085484881" lon="-2.2612595279"><ele>171.73</ele><time>2015-09-16T10:30:51Z</time></trkpt><trkpt lat="51.7085508350" lon="-2.2612723522"><ele>165.96</ele><time>2015-09-16T10:30:52Z</time></trkpt><trkpt lat="51.7086020485" lon="-2.2616217937"><ele>165.48</ele><time>2015-09-16T10:31:11Z</time></trkpt><trkpt lat="51.7086675111" lon="-2.2619494423"><ele>165.96</ele><time>2015-09-16T10:31:30Z</time></trkpt><trkpt lat="51.7087355722" lon="-2.2621814534"><ele>165.96</ele><time>2015-09-16T10:31:49Z</time></trkpt><trkpt lat="51.7087807506" lon="-2.2622537054"><ele>164.52</ele><time>2015-09-16T10:31:52Z</time></trkpt><trkpt lat="51.7088005319" lon="-2.2622837964"><ele>166.45</ele><time>2015-09-16T10:31:54Z</time></trkpt><trkpt lat="51.7088114284" lon="-2.2624269594"><ele>165.48</ele><time>2015-09-16T10:32:03Z</time></trkpt><trkpt lat="51.7087892164" lon="-2.2627002932"><ele>167.41</ele><time>2015-09-16T10:32:21Z</time></trkpt><trkpt lat="51.7087722849" lon="-2.2628628183"><ele>167.41</ele><time>2015-09-16T10:32:45Z</time></trkpt><trkpt lat="51.7088457104" lon="-2.2631234117"><ele>165.96</ele><time>2015-09-16T10:32:56Z</time></trkpt><trkpt lat="51.7088959180" lon="-2.2634010203"><ele>163.56</ele><time>2015-09-16T10:33:16Z</time></trkpt><trkpt lat="51.7088922299" lon="-2.2634104080"><ele>166.93</ele><time>2015-09-16T10:33:18Z</time></trkpt><trkpt lat="51.7088729516" lon="-2.2635125834"><ele>165.00</ele><time>2015-09-16T10:33:29Z</time></trkpt><trkpt lat="51.7088882904" lon="-2.2635722626"><ele>166.45</ele><time>2015-09-16T10:33:32Z</time></trkpt><trkpt lat="51.7090289388" lon="-2.2638495360"><ele>165.96</ele><time>2015-09-16T10:33:50Z</time></trkpt><trkpt lat="51.7091723531" lon="-2.2641957086"><ele>166.45</ele><time>2015-09-16T10:34:07Z</time></trkpt><trkpt lat="51.7091847584" lon="-2.2642185912"><ele>167.41</ele><time>2015-09-16T10:34:09Z</time></trkpt><trkpt lat="51.7091989238" lon="-2.2642520349"><ele>166.93</ele><time>2015-09-16T10:34:12Z</time></trkpt><trkpt lat="51.7092783004" lon="-2.2643029131"><ele>167.41</ele><time>2015-09-16T10:34:34Z</time></trkpt><trkpt lat="51.7093883548" lon="-2.2644853033"><ele>165.48</ele><time>2015-09-16T10:34:53Z</time></trkpt><trkpt lat="51.7094652168" lon="-2.2647716291"><ele>163.56</ele><time>2015-09-16T10:35:14Z</time></trkpt><trkpt lat="51.7095308471" lon="-2.2649268620"><ele>160.20</ele><time>2015-09-16T10:35:26Z</time></trkpt><trkpt lat="51.7095341161" lon="-2.2649350762"><ele>163.56</ele><time>2015-09-16T10:35:27Z</time></trkpt><trkpt lat="51.7095254827" lon="-2.2650748864"><ele>161.64</ele><time>2015-09-16T10:35:44Z</time></trkpt><trkpt lat="51.7095259018" lon="-2.2651048098"><ele>162.60</ele><time>2015-09-16T10:35:46Z</time></trkpt><trkpt lat="51.7095564958" lon="-2.2652110085"><ele>160.68</ele><time>2015-09-16T10:36:07Z</time></trkpt><trkpt lat="51.7095533945" lon="-2.2651706077"><ele>160.68</ele><time>2015-09-16T10:36:30Z</time></trkpt><trkpt lat="51.7095814738" lon="-2.2651709430"><ele>161.16</ele><time>2015-09-16T10:36:33Z</time></trkpt><trkpt lat="51.7096692324" lon="-2.2652165405"><ele>160.68</ele><time>2015-09-16T10:36:42Z</time></trkpt><trkpt lat="51.7096664663" lon="-2.2652219888"><ele>156.83</ele><time>2015-09-16T10:36:54Z</time></trkpt><trkpt lat="51.7096372973" lon="-2.2651926521"><ele>160.68</ele><time>2015-09-16T10:36:55Z</time></trkpt><trkpt lat="51.7096706573" lon="-2.2652181331"><ele>158.75</ele><time>2015-09-16T10:37:15Z</time></trkpt><trkpt lat="51.7097325157" lon="-2.2651499882"><ele>155.87</ele><time>2015-09-16T10:37:40Z</time></trkpt><trkpt lat="51.7098857369" lon="-2.2650395986"><ele>152.51</ele><time>2015-09-16T10:37:56Z</time></trkpt><trkpt lat="51.7099298257" lon="-2.2650079150"><ele>151.54</ele><time>2015-09-16T10:38:00Z</time></trkpt><trkpt lat="51.7100751679" lon="-2.2648390196"><ele>148.66</ele><time>2015-09-16T10:38:21Z</time></trkpt><trkpt lat="51.7101999745" lon="-2.2647269536"><ele>145.78</ele><time>2015-09-16T10:38:39Z</time></trkpt><trkpt lat="51.7103674449" lon="-2.2646103613"><ele>141.45</ele><time>2015-09-16T10:38:53Z</time></trkpt><trkpt lat="51.7103773355" lon="-2.2645998001"><ele>142.41</ele><time>2015-09-16T10:38:54Z</time></trkpt><trkpt lat="51.7104809359" lon="-2.2644372750"><ele>140.49</ele><time>2015-09-16T10:39:11Z</time></trkpt><trkpt lat="51.7104964424" lon="-2.2644165717"><ele>139.53</ele><time>2015-09-16T10:39:29Z</time></trkpt><trkpt lat="51.7104998790" lon="-2.2642847244"><ele>138.09</ele><time>2015-09-16T10:39:48Z</time></trkpt><trkpt lat="51.7105325684" lon="-2.2641672939"><ele>135.68</ele><time>2015-09-16T10:40:05Z</time></trkpt><trkpt lat="51.7105581332" lon="-2.2641483508"><ele>131.84</ele><time>2015-09-16T10:40:11Z</time></trkpt><trkpt lat="51.7105626594" lon="-2.2641508654"><ele>136.16</ele><time>2015-09-16T10:40:13Z</time></trkpt><trkpt lat="51.7105694488" lon="-2.2641501110"><ele>135.68</ele><time>2015-09-16T10:40:14Z</time></trkpt><trkpt lat="51.7105989531" lon="-2.2641513683"><ele>132.32</ele><time>2015-09-16T10:40:18Z</time></trkpt><trkpt lat="51.7106015515" lon="-2.2641492728"><ele>134.72</ele><time>2015-09-16T10:40:19Z</time></trkpt><trkpt lat="51.7106002104" lon="-2.2641511168"><ele>135.68</ele><time>2015-09-16T10:40:21Z</time></trkpt><trkpt lat="51.7105997074" lon="-2.2641506977"><ele>135.20</ele><time>2015-09-16T10:40:23Z</time></trkpt><trkpt lat="51.7105748970" lon="-2.2641452495"><ele>134.24</ele><time>2015-09-16T10:40:41Z</time></trkpt><trkpt lat="51.7105834465" lon="-2.2641482670"><ele>133.76</ele><time>2015-09-16T10:41:09Z</time></trkpt><trkpt lat="51.7105676886" lon="-2.2641546372"><ele>133.76</ele><time>2015-09-16T10:41:32Z</time></trkpt><trkpt lat="51.7106074188" lon="-2.2641553916"><ele>132.32</ele><time>2015-09-16T10:41:52Z</time></trkpt><trkpt lat="51.7106581293" lon="-2.2642712295"><ele>131.84</ele><time>2015-09-16T10:42:11Z</time></trkpt><trkpt lat="51.7106802575" lon="-2.2643220238"><ele>127.99</ele><time>2015-09-16T10:42:19Z</time></trkpt><trkpt lat="51.7106891423" lon="-2.2643873189"><ele>130.88</ele><time>2015-09-16T10:42:22Z</time></trkpt><trkpt lat="51.7106933333" lon="-2.2644077707"><ele>130.40</ele><time>2015-09-16T10:42:29Z</time></trkpt><trkpt lat="51.7107982747" lon="-2.2646712139"><ele>131.36</ele><time>2015-09-16T10:42:49Z</time></trkpt><trkpt lat="51.7108538467" lon="-2.2647342458"><ele>129.92</ele><time>2015-09-16T10:42:53Z</time></trkpt><trkpt lat="51.7109299544" lon="-2.2648530174"><ele>132.32</ele><time>2015-09-16T10:43:04Z</time></trkpt><trkpt lat="51.7109623924" lon="-2.2648646683"><ele>128.47</ele><time>2015-09-16T10:43:07Z</time></trkpt><trkpt lat="51.7110145278" lon="-2.2649283707"><ele>131.84</ele><time>2015-09-16T10:43:14Z</time></trkpt><trkpt lat="51.7110383324" lon="-2.2649540193"><ele>128.47</ele><time>2015-09-16T10:43:16Z</time></trkpt><trkpt lat="51.7110514920" lon="-2.2649683524"><ele>128.95</ele><time>2015-09-16T10:43:17Z</time></trkpt><trkpt lat="51.7110669147" lon="-2.2649936657"><ele>129.92</ele><time>2015-09-16T10:43:19Z</time></trkpt><trkpt lat="51.7111598700" lon="-2.2651603818"><ele>129.92</ele><time>2015-09-16T10:43:34Z</time></trkpt><trkpt lat="51.7112180404" lon="-2.2653361503"><ele>128.47</ele><time>2015-09-16T10:43:44Z</time></trkpt><trkpt lat="51.7111628875" lon="-2.2654924728"><ele>135.68</ele><time>2015-09-16T10:43:57Z</time></trkpt><trkpt lat="51.7111564334" lon="-2.2655099072"><ele>130.40</ele><time>2015-09-16T10:43:58Z</time></trkpt><trkpt lat="51.7111205589" lon="-2.2656090651"><ele>131.84</ele><time>2015-09-16T10:44:02Z</time></trkpt><trkpt lat="51.7111198045" lon="-2.2657569218"><ele>130.40</ele><time>2015-09-16T10:44:07Z</time></trkpt><trkpt lat="51.7111172061" lon="-2.2657907009"><ele>134.24</ele><time>2015-09-16T10:44:09Z</time></trkpt><trkpt lat="51.7111258395" lon="-2.2657974903"><ele>134.24</ele><time>2015-09-16T10:44:10Z</time></trkpt><trkpt lat="51.7112398334" lon="-2.2657568380"><ele>133.76</ele><time>2015-09-16T10:44:29Z</time></trkpt><trkpt lat="51.7113503907" lon="-2.2656892799"><ele>133.76</ele><time>2015-09-16T10:44:48Z</time></trkpt><trkpt lat="51.7114604451" lon="-2.2655767947"><ele>133.76</ele><time>2015-09-16T10:45:08Z</time></trkpt><trkpt lat="51.7115829047" lon="-2.2655319516"><ele>133.28</ele><time>2015-09-16T10:45:32Z</time></trkpt><trkpt lat="51.7115892749" lon="-2.2655266710"><ele>134.24</ele><time>2015-09-16T10:45:54Z</time></trkpt><trkpt lat="51.7115963995" lon="-2.2655370645"><ele>135.20</ele><time>2015-09-16T10:46:15Z</time></trkpt><trkpt lat="51.7116093077" lon="-2.2655723523"><ele>133.28</ele><time>2015-09-16T10:46:36Z</time></trkpt><trkpt lat="51.7116190307" lon="-2.2657335363"><ele>132.32</ele><time>2015-09-16T10:46:53Z</time></trkpt><trkpt lat="51.7115305178" lon="-2.2661238816"><ele>132.80</ele><time>2015-09-16T10:47:18Z</time></trkpt><trkpt lat="51.7116246466" lon="-2.2663025837"><ele>133.28</ele><time>2015-09-16T10:47:39Z</time></trkpt><trkpt lat="51.7116665561" lon="-2.2665650211"><ele>132.80</ele><time>2015-09-16T10:47:58Z</time></trkpt><trkpt lat="51.7117913626" lon="-2.2667484172"><ele>132.80</ele><time>2015-09-16T10:48:18Z</time></trkpt><trkpt lat="51.7118367087" lon="-2.2668776661"><ele>132.80</ele><time>2015-09-16T10:48:27Z</time></trkpt><trkpt lat="51.7118983995" lon="-2.2671313863"><ele>134.24</ele><time>2015-09-16T10:48:44Z</time></trkpt><trkpt lat="51.7120074481" lon="-2.2673499864"><ele>134.24</ele><time>2015-09-16T10:49:04Z</time></trkpt><trkpt lat="51.7120593321" lon="-2.2673739586"><ele>133.76</ele><time>2015-09-16T10:49:18Z</time></trkpt><trkpt lat="51.7120322585" lon="-2.2674382478"><ele>133.76</ele><time>2015-09-16T10:49:22Z</time></trkpt><trkpt lat="51.7118962202" lon="-2.2677193768"><ele>132.80</ele><time>2015-09-16T10:49:39Z</time></trkpt><trkpt lat="51.7119638622" lon="-2.2679254878"><ele>134.24</ele><time>2015-09-16T10:49:58Z</time></trkpt><trkpt lat="51.7120367009" lon="-2.2681780346"><ele>135.68</ele><time>2015-09-16T10:50:20Z</time></trkpt><trkpt lat="51.7121497728" lon="-2.2684023343"><ele>135.68</ele><time>2015-09-16T10:50:41Z</time></trkpt><trkpt lat="51.7122988869" lon="-2.2685653623"><ele>136.16</ele><time>2015-09-16T10:51:00Z</time></trkpt><trkpt lat="51.7123541236" lon="-2.2686534561"><ele>139.53</ele><time>2015-09-16T10:51:08Z</time></trkpt><trkpt lat="51.7124031577" lon="-2.2687148117"><ele>138.57</ele><time>2015-09-16T10:51:14Z</time></trkpt><trkpt lat="51.7124329135" lon="-2.2687837947"><ele>142.41</ele><time>2015-09-16T10:51:19Z</time></trkpt><trkpt lat="51.7124396190" lon="-2.2687922604"><ele>140.49</ele><time>2015-09-16T10:51:20Z</time></trkpt><trkpt lat="51.7124562990" lon="-2.2688780073"><ele>141.45</ele><time>2015-09-16T10:51:29Z</time></trkpt><trkpt lat="51.7124778405" lon="-2.2689551208"><ele>144.82</ele><time>2015-09-16T10:51:39Z</time></trkpt><trkpt lat="51.7124837916" lon="-2.2689693701"><ele>149.14</ele><time>2015-09-16T10:51:41Z</time></trkpt><trkpt lat="51.7124886531" lon="-2.2689730581"><ele>144.82</ele><time>2015-09-16T10:51:42Z</time></trkpt><trkpt lat="51.7124887370" lon="-2.2689948510"><ele>144.34</ele><time>2015-09-16T10:51:44Z</time></trkpt><trkpt lat="51.7124976218" lon="-2.2689954378"><ele>140.49</ele><time>2015-09-16T10:51:49Z</time></trkpt><trkpt lat="51.7124974541" lon="-2.2689957730"><ele>142.41</ele><time>2015-09-16T10:51:50Z</time></trkpt><trkpt lat="51.7124998011" lon="-2.2689977847"><ele>146.26</ele><time>2015-09-16T10:51:53Z</time></trkpt><trkpt lat="51.7125005554" lon="-2.2690002993"><ele>145.78</ele><time>2015-09-16T10:51:54Z</time></trkpt><trkpt lat="51.7125185765" lon="-2.2690510098"><ele>146.74</ele><time>2015-09-16T10:52:13Z</time></trkpt><trkpt lat="51.7125994619" lon="-2.2691265307"><ele>152.03</ele><time>2015-09-16T10:52:22Z</time></trkpt><trkpt lat="51.7126001325" lon="-2.2691272013"><ele>147.70</ele><time>2015-09-16T10:52:23Z</time></trkpt><trkpt lat="51.7126157228" lon="-2.2691759001"><ele>148.18</ele><time>2015-09-16T10:52:30Z</time></trkpt><trkpt lat="51.7126606498" lon="-2.2692056559"><ele>150.10</ele><time>2015-09-16T10:52:46Z</time></trkpt><trkpt lat="51.7126671039" lon="-2.2691913228"><ele>148.18</ele><time>2015-09-16T10:53:07Z</time></trkpt><trkpt lat="51.7126684450" lon="-2.2692771535"><ele>147.70</ele><time>2015-09-16T10:53:26Z</time></trkpt><trkpt lat="51.7126374319" lon="-2.2694722842"><ele>148.18</ele><time>2015-09-16T10:53:47Z</time></trkpt><trkpt lat="51.7125139665" lon="-2.2698185407"><ele>148.18</ele><time>2015-09-16T10:54:08Z</time></trkpt><trkpt lat="51.7124890722" lon="-2.2701261565"><ele>146.74</ele><time>2015-09-16T10:54:26Z</time></trkpt><trkpt lat="51.7124805227" lon="-2.2701532301"><ele>148.66</ele><time>2015-09-16T10:54:28Z</time></trkpt><trkpt lat="51.7124500126" lon="-2.2704371251"><ele>147.22</ele><time>2015-09-16T10:54:49Z</time></trkpt><trkpt lat="51.7123594880" lon="-2.2707613371"><ele>148.18</ele><time>2015-09-16T10:55:06Z</time></trkpt><trkpt lat="51.7123210989" lon="-2.2710479144"><ele>148.66</ele><time>2015-09-16T10:55:25Z</time></trkpt><trkpt lat="51.7123602424" lon="-2.2712300532"><ele>147.70</ele><time>2015-09-16T10:55:43Z</time></trkpt><trkpt lat="51.7123404611" lon="-2.2713316418"><ele>147.70</ele><time>2015-09-16T10:55:48Z</time></trkpt><trkpt lat="51.7123094480" lon="-2.2714370023"><ele>147.22</ele><time>2015-09-16T10:55:55Z</time></trkpt><trkpt lat="51.7123266309" lon="-2.2716992721"><ele>146.74</ele><time>2015-09-16T10:56:16Z</time></trkpt><trkpt lat="51.7123563029" lon="-2.2719890345"><ele>146.74</ele><time>2015-09-16T10:56:37Z</time></trkpt><trkpt lat="51.7123772576" lon="-2.2721675690"><ele>146.26</ele><time>2015-09-16T10:56:51Z</time></trkpt><trkpt lat="51.7123774253" lon="-2.2725018393"><ele>145.78</ele><time>2015-09-16T10:57:12Z</time></trkpt><trkpt lat="51.7123222724" lon="-2.2727096267"><ele>146.26</ele><time>2015-09-16T10:57:22Z</time></trkpt><trkpt lat="51.7123614997" lon="-2.2726942878"><ele>146.74</ele><time>2015-09-16T10:57:26Z</time></trkpt><trkpt lat="51.7123350129" lon="-2.2730046697"><ele>145.78</ele><time>2015-09-16T10:57:45Z</time></trkpt><trkpt lat="51.7123702168" lon="-2.2732106131"><ele>145.78</ele><time>2015-09-16T10:58:03Z</time></trkpt><trkpt lat="51.7123509385" lon="-2.2735365015"><ele>144.82</ele><time>2015-09-16T10:58:24Z</time></trkpt><trkpt lat="51.7122752499" lon="-2.2737412713"><ele>144.82</ele><time>2015-09-16T10:58:40Z</time></trkpt><trkpt lat="51.7122666165" lon="-2.2737652436"><ele>143.85</ele><time>2015-09-16T10:58:58Z</time></trkpt><trkpt lat="51.7122917622" lon="-2.2738624737"><ele>143.85</ele><time>2015-09-16T10:59:11Z</time></trkpt><trkpt lat="51.7122891638" lon="-2.2738775611"><ele>143.85</ele><time>2015-09-16T10:59:12Z</time></trkpt><trkpt lat="51.7121794447" lon="-2.2741170321"><ele>143.37</ele><time>2015-09-16T10:59:29Z</time></trkpt><trkpt lat="51.7121604178" lon="-2.2741582710"><ele>143.85</ele><time>2015-09-16T10:59:32Z</time></trkpt><trkpt lat="51.7120255530" lon="-2.2744031902"><ele>143.37</ele><time>2015-09-16T10:59:52Z</time></trkpt><trkpt lat="51.7118642852" lon="-2.2746011708"><ele>142.41</ele><time>2015-09-16T11:00:11Z</time></trkpt><trkpt lat="51.7117253970" lon="-2.2747610137"><ele>142.89</ele><time>2015-09-16T11:00:27Z</time></trkpt><trkpt lat="51.7116678972" lon="-2.2748253029"><ele>141.93</ele><time>2015-09-16T11:00:35Z</time></trkpt><trkpt lat="51.7116152588" lon="-2.2748916037"><ele>143.85</ele><time>2015-09-16T11:00:46Z</time></trkpt><trkpt lat="51.7116042785" lon="-2.2748968843"><ele>141.93</ele><time>2015-09-16T11:00:48Z</time></trkpt><trkpt lat="51.7115712538" lon="-2.2749366984"><ele>142.89</ele><time>2015-09-16T11:00:53Z</time></trkpt><trkpt lat="51.7114805616" lon="-2.2750541288"><ele>143.85</ele><time>2015-09-16T11:01:06Z</time></trkpt><trkpt lat="51.7114497162" lon="-2.2750888299"><ele>142.89</ele><time>2015-09-16T11:01:26Z</time></trkpt><trkpt lat="51.7114668153" lon="-2.2751077730"><ele>142.41</ele><time>2015-09-16T11:01:44Z</time></trkpt><trkpt lat="51.7114410829" lon="-2.2751277220"><ele>142.89</ele><time>2015-09-16T11:01:59Z</time></trkpt><trkpt lat="51.7114347965" lon="-2.2751509398"><ele>141.93</ele><time>2015-09-16T11:02:25Z</time></trkpt><trkpt lat="51.7113703396" lon="-2.2752154805"><ele>142.41</ele><time>2015-09-16T11:02:45Z</time></trkpt><trkpt lat="51.7113076430" lon="-2.2752967011"><ele>142.89</ele><time>2015-09-16T11:03:08Z</time></trkpt><trkpt lat="51.7111604568" lon="-2.2754979506"><ele>143.85</ele><time>2015-09-16T11:03:29Z</time></trkpt><trkpt lat="51.7110829242" lon="-2.2756244335"><ele>144.82</ele><time>2015-09-16T11:03:40Z</time></trkpt><trkpt lat="51.7110742070" lon="-2.2756354976"><ele>141.93</ele><time>2015-09-16T11:03:41Z</time></trkpt><trkpt lat="51.7110638134" lon="-2.2756546922"><ele>144.82</ele><time>2015-09-16T11:03:43Z</time></trkpt><trkpt lat="51.7109811679" lon="-2.2757965978"><ele>147.70</ele><time>2015-09-16T11:03:52Z</time></trkpt><trkpt lat="51.7109709419" lon="-2.2758129425"><ele>143.85</ele><time>2015-09-16T11:03:53Z</time></trkpt><trkpt lat="51.7109423596" lon="-2.2758386750"><ele>145.30</ele><time>2015-09-16T11:03:56Z</time></trkpt><trkpt lat="51.7108632345" lon="-2.2759234998"><ele>146.26</ele><time>2015-09-16T11:04:05Z</time></trkpt><trkpt lat="51.7107653338" lon="-2.2760194726"><ele>146.26</ele><time>2015-09-16T11:04:21Z</time></trkpt><trkpt lat="51.7107365001" lon="-2.2760516591"><ele>146.74</ele><time>2015-09-16T11:04:25Z</time></trkpt><trkpt lat="51.7106382642" lon="-2.2761850152"><ele>145.78</ele><time>2015-09-16T11:04:41Z</time></trkpt><trkpt lat="51.7105334066" lon="-2.2763615381"><ele>147.70</ele><time>2015-09-16T11:04:56Z</time></trkpt><trkpt lat="51.7103988770" lon="-2.2766144201"><ele>147.70</ele><time>2015-09-16T11:05:15Z</time></trkpt><trkpt lat="51.7103152256" lon="-2.2768204473"><ele>148.18</ele><time>2015-09-16T11:05:33Z</time></trkpt><trkpt lat="51.7102215160" lon="-2.2770782746"><ele>149.62</ele><time>2015-09-16T11:05:49Z</time></trkpt><trkpt lat="51.7101683747" lon="-2.2772982158"><ele>148.18</ele><time>2015-09-16T11:06:06Z</time></trkpt><trkpt lat="51.7101703864" lon="-2.2773371078"><ele>149.62</ele><time>2015-09-16T11:06:09Z</time></trkpt><trkpt lat="51.7101593222" lon="-2.2773816157"><ele>148.18</ele><time>2015-09-16T11:06:12Z</time></trkpt><trkpt lat="51.7101775110" lon="-2.2776613198"><ele>148.18</ele><time>2015-09-16T11:06:28Z</time></trkpt><trkpt lat="51.7101962026" lon="-2.2776996251"><ele>151.54</ele><time>2015-09-16T11:06:31Z</time></trkpt><trkpt lat="51.7103403714" lon="-2.2778812610"><ele>151.06</ele><time>2015-09-16T11:06:50Z</time></trkpt><trkpt lat="51.7104049120" lon="-2.2779069096"><ele>152.03</ele><time>2015-09-16T11:06:55Z</time></trkpt><trkpt lat="51.7105299700" lon="-2.2780092526"><ele>153.47</ele><time>2015-09-16T11:07:16Z</time></trkpt><trkpt lat="51.7105128709" lon="-2.2780120187"><ele>152.99</ele><time>2015-09-16T11:07:32Z</time></trkpt><trkpt lat="51.7105268687" lon="-2.2780024633"><ele>153.47</ele><time>2015-09-16T11:07:54Z</time></trkpt><trkpt lat="51.7104869708" lon="-2.2780457977"><ele>152.51</ele><time>2015-09-16T11:08:02Z</time></trkpt><trkpt lat="51.7102671973" lon="-2.2782058083"><ele>152.03</ele><time>2015-09-16T11:08:21Z</time></trkpt><trkpt lat="51.7103255354" lon="-2.2783648968"><ele>152.99</ele><time>2015-09-16T11:08:41Z</time></trkpt><trkpt lat="51.7103821971" lon="-2.2784088179"><ele>152.99</ele><time>2015-09-16T11:08:57Z</time></trkpt><trkpt lat="51.7103955243" lon="-2.2784412559"><ele>153.47</ele><time>2015-09-16T11:09:18Z</time></trkpt><trkpt lat="51.7104234360" lon="-2.2784554213"><ele>153.47</ele><time>2015-09-16T11:09:40Z</time></trkpt><trkpt lat="51.7104465701" lon="-2.2784208041"><ele>152.99</ele><time>2015-09-16T11:10:01Z</time></trkpt><trkpt lat="51.7104336619" lon="-2.2784317005"><ele>153.47</ele><time>2015-09-16T11:10:24Z</time></trkpt><trkpt lat="51.7104034871" lon="-2.2785147652"><ele>153.47</ele><time>2015-09-16T11:10:42Z</time></trkpt><trkpt lat="51.7103364319" lon="-2.2786290944"><ele>153.95</ele><time>2015-09-16T11:10:55Z</time></trkpt><trkpt lat="51.7102075182" lon="-2.2788085509"><ele>152.99</ele><time>2015-09-16T11:11:13Z</time></trkpt><trkpt lat="51.7101279739" lon="-2.2789794579"><ele>153.95</ele><time>2015-09-16T11:11:26Z</time></trkpt><trkpt lat="51.7100584880" lon="-2.2791974712"><ele>153.47</ele><time>2015-09-16T11:11:42Z</time></trkpt><trkpt lat="51.7100188415" lon="-2.2793521173"><ele>152.51</ele><time>2015-09-16T11:11:50Z</time></trkpt><trkpt lat="51.7099905107" lon="-2.2795915883"><ele>152.51</ele><time>2015-09-16T11:12:05Z</time></trkpt><trkpt lat="51.7099951208" lon="-2.2796254512"><ele>153.95</ele><time>2015-09-16T11:12:07Z</time></trkpt><trkpt lat="51.7099982221" lon="-2.2798562888"><ele>152.99</ele><time>2015-09-16T11:12:21Z</time></trkpt><trkpt lat="51.7100397963" lon="-2.2801250126"><ele>154.91</ele><time>2015-09-16T11:12:40Z</time></trkpt><trkpt lat="51.7101051752" lon="-2.2803576943"><ele>154.43</ele><time>2015-09-16T11:12:56Z</time></trkpt><trkpt lat="51.7101218551" lon="-2.2804064769"><ele>157.79</ele><time>2015-09-16T11:12:59Z</time></trkpt><trkpt lat="51.7101255432" lon="-2.2804210614"><ele>154.91</ele><time>2015-09-16T11:13:00Z</time></trkpt><trkpt lat="51.7101352662" lon="-2.2804650664"><ele>156.35</ele><time>2015-09-16T11:13:03Z</time></trkpt><trkpt lat="51.7101754993" lon="-2.2806907073"><ele>156.83</ele><time>2015-09-16T11:13:20Z</time></trkpt><trkpt lat="51.7102476675" lon="-2.2808847483"><ele>156.35</ele><time>2015-09-16T11:13:37Z</time></trkpt><trkpt lat="51.7102859728" lon="-2.2809875943"><ele>158.27</ele><time>2015-09-16T11:13:46Z</time></trkpt><trkpt lat="51.7103118729" lon="-2.2811537236"><ele>158.27</ele><time>2015-09-16T11:13:58Z</time></trkpt><trkpt lat="51.7103852145" lon="-2.2814738285"><ele>159.72</ele><time>2015-09-16T11:14:19Z</time></trkpt><trkpt lat="51.7104045767" lon="-2.2815067694"><ele>158.75</ele><time>2015-09-16T11:14:22Z</time></trkpt><trkpt lat="51.7105075903" lon="-2.2816453222"><ele>160.20</ele><time>2015-09-16T11:14:37Z</time></trkpt><trkpt lat="51.7105786689" lon="-2.2818411235"><ele>161.16</ele><time>2015-09-16T11:14:55Z</time></trkpt><trkpt lat="51.7105441354" lon="-2.2819005512"><ele>161.16</ele><time>2015-09-16T11:15:20Z</time></trkpt><trkpt lat="51.7105615698" lon="-2.2820391878"><ele>161.64</ele><time>2015-09-16T11:15:35Z</time></trkpt><trkpt lat="51.7105785012" lon="-2.2820932511"><ele>160.68</ele><time>2015-09-16T11:15:39Z</time></trkpt><trkpt lat="51.7105977796" lon="-2.2821408603"><ele>160.68</ele><time>2015-09-16T11:15:43Z</time></trkpt><trkpt lat="51.7106283735" lon="-2.2822509147"><ele>163.56</ele><time>2015-09-16T11:15:51Z</time></trkpt><trkpt lat="51.7106393538" lon="-2.2823472228"><ele>163.08</ele><time>2015-09-16T11:15:56Z</time></trkpt><trkpt lat="51.7106940039" lon="-2.2824989352"><ele>162.12</ele><time>2015-09-16T11:16:09Z</time></trkpt><trkpt lat="51.7107774876" lon="-2.2826622147"><ele>165.48</ele><time>2015-09-16T11:16:20Z</time></trkpt><trkpt lat="51.7107927427" lon="-2.2826980054"><ele>162.12</ele><time>2015-09-16T11:16:23Z</time></trkpt><trkpt lat="51.7108049802" lon="-2.2827175353"><ele>163.56</ele><time>2015-09-16T11:16:25Z</time></trkpt><trkpt lat="51.7108142003" lon="-2.2827458661"><ele>162.12</ele><time>2015-09-16T11:16:27Z</time></trkpt><trkpt lat="51.7108632345" lon="-2.2829563357"><ele>163.56</ele><time>2015-09-16T11:16:38Z</time></trkpt><trkpt lat="51.7108803336" lon="-2.2829784639"><ele>165.00</ele><time>2015-09-16T11:16:40Z</time></trkpt><trkpt lat="51.7109265178" lon="-2.2830205411"><ele>164.04</ele><time>2015-09-16T11:16:45Z</time></trkpt><trkpt lat="51.7109426949" lon="-2.2830802202"><ele>165.00</ele><time>2015-09-16T11:17:01Z</time></trkpt><trkpt lat="51.7109777313" lon="-2.2831550706"><ele>166.45</ele><time>2015-09-16T11:17:16Z</time></trkpt><trkpt lat="51.7110058945" lon="-2.2831797134"><ele>166.93</ele><time>2015-09-16T11:17:20Z</time></trkpt><trkpt lat="51.7110187188" lon="-2.2831942979"><ele>165.48</ele><time>2015-09-16T11:17:22Z</time></trkpt><trkpt lat="51.7111011129" lon="-2.2834622674"><ele>164.52</ele><time>2015-09-16T11:17:41Z</time></trkpt><trkpt lat="51.7111262586" lon="-2.2834978066"><ele>167.89</ele><time>2015-09-16T11:17:44Z</time></trkpt><trkpt lat="51.7111338023" lon="-2.2835177556"><ele>167.41</ele><time>2015-09-16T11:17:46Z</time></trkpt><trkpt lat="51.7111667432" lon="-2.2836515307"><ele>166.45</ele><time>2015-09-16T11:17:55Z</time></trkpt><trkpt lat="51.7112102453" lon="-2.2837649379"><ele>168.37</ele><time>2015-09-16T11:18:07Z</time></trkpt><trkpt lat="51.7112511490" lon="-2.2838846315"><ele>169.81</ele><time>2015-09-16T11:18:19Z</time></trkpt><trkpt lat="51.7112950701" lon="-2.2839304805"><ele>170.29</ele><time>2015-09-16T11:18:23Z</time></trkpt><trkpt lat="51.7113383207" lon="-2.2841171455"><ele>168.85</ele><time>2015-09-16T11:18:36Z</time></trkpt><trkpt lat="51.7114010174" lon="-2.2843064088"><ele>169.81</ele><time>2015-09-16T11:18:50Z</time></trkpt><trkpt lat="51.7114065494" lon="-2.2845479753"><ele>171.25</ele><time>2015-09-16T11:19:06Z</time></trkpt><trkpt lat="51.7114218883" lon="-2.2847301140"><ele>170.77</ele><time>2015-09-16T11:19:22Z</time></trkpt><trkpt lat="51.7114140932" lon="-2.2848152742"><ele>170.29</ele><time>2015-09-16T11:19:28Z</time></trkpt><trkpt lat="51.7114116624" lon="-2.2849617898"><ele>172.69</ele><time>2015-09-16T11:19:46Z</time></trkpt><trkpt lat="51.7114114109" lon="-2.2849745303"><ele>172.69</ele><time>2015-09-16T11:19:47Z</time></trkpt><trkpt lat="51.7114252411" lon="-2.2852729261"><ele>173.66</ele><time>2015-09-16T11:20:09Z</time></trkpt><trkpt lat="51.7114192899" lon="-2.2852924559"><ele>170.29</ele><time>2015-09-16T11:20:10Z</time></trkpt><trkpt lat="51.7114062142" lon="-2.2853564937"><ele>173.66</ele><time>2015-09-16T11:20:14Z</time></trkpt><trkpt lat="51.7113873549" lon="-2.2855797037"><ele>174.14</ele><time>2015-09-16T11:20:29Z</time></trkpt><trkpt lat="51.7113855109" lon="-2.2856062744"><ele>174.14</ele><time>2015-09-16T11:20:31Z</time></trkpt><trkpt lat="51.7113809846" lon="-2.2857514489"><ele>174.14</ele><time>2015-09-16T11:20:40Z</time></trkpt><trkpt lat="51.7113242391" lon="-2.2860055882"><ele>174.14</ele><time>2015-09-16T11:20:57Z</time></trkpt><trkpt lat="51.7113233171" lon="-2.2860556282"><ele>177.50</ele><time>2015-09-16T11:21:00Z</time></trkpt><trkpt lat="51.7113285977" lon="-2.2860700451"><ele>174.14</ele><time>2015-09-16T11:21:01Z</time></trkpt><trkpt lat="51.7113333754" lon="-2.2861102782"><ele>177.50</ele><time>2015-09-16T11:21:04Z</time></trkpt><trkpt lat="51.7113280948" lon="-2.2863400262"><ele>177.50</ele><time>2015-09-16T11:21:24Z</time></trkpt><trkpt lat="51.7113317829" lon="-2.2865151241"><ele>181.35</ele><time>2015-09-16T11:21:38Z</time></trkpt><trkpt lat="51.7113305256" lon="-2.2865286190"><ele>176.54</ele><time>2015-09-16T11:21:39Z</time></trkpt><trkpt lat="51.7113130074" lon="-2.2866231669"><ele>179.90</ele><time>2015-09-16T11:21:46Z</time></trkpt><trkpt lat="51.7113143485" lon="-2.2868976742"><ele>180.87</ele><time>2015-09-16T11:22:02Z</time></trkpt><trkpt lat="51.7113140132" lon="-2.2870546672"><ele>180.87</ele><time>2015-09-16T11:22:20Z</time></trkpt><trkpt lat="51.7113078944" lon="-2.2871486284"><ele>181.35</ele><time>2015-09-16T11:22:44Z</time></trkpt><trkpt lat="51.7112627160" lon="-2.2873005085"><ele>177.02</ele><time>2015-09-16T11:22:53Z</time></trkpt><trkpt lat="51.7112571839" lon="-2.2873247322"><ele>182.79</ele><time>2015-09-16T11:22:54Z</time></trkpt><trkpt lat="51.7112726066" lon="-2.2876419872"><ele>183.75</ele><time>2015-09-16T11:23:14Z</time></trkpt><trkpt lat="51.7112788931" lon="-2.2877025884"><ele>180.38</ele><time>2015-09-16T11:23:17Z</time></trkpt><trkpt lat="51.7112803180" lon="-2.2877170052"><ele>184.23</ele><time>2015-09-16T11:23:18Z</time></trkpt><trkpt lat="51.7112850957" lon="-2.2877304163"><ele>185.67</ele><time>2015-09-16T11:23:19Z</time></trkpt><trkpt lat="51.7112980876" lon="-2.2877900954"><ele>187.11</ele><time>2015-09-16T11:23:23Z</time></trkpt><trkpt lat="51.7113009375" lon="-2.2878017463"><ele>181.83</ele><time>2015-09-16T11:23:24Z</time></trkpt><trkpt lat="51.7113037035" lon="-2.2878262214"><ele>185.19</ele><time>2015-09-16T11:23:26Z</time></trkpt><trkpt lat="51.7113220599" lon="-2.2880832106"><ele>185.67</ele><time>2015-09-16T11:23:42Z</time></trkpt><trkpt lat="51.7113283463" lon="-2.2881176602"><ele>183.75</ele><time>2015-09-16T11:23:44Z</time></trkpt><trkpt lat="51.7112959921" lon="-2.2882136330"><ele>189.04</ele><time>2015-09-16T11:23:51Z</time></trkpt><trkpt lat="51.7112927232" lon="-2.2882231046"><ele>185.19</ele><time>2015-09-16T11:23:52Z</time></trkpt><trkpt lat="51.7113107443" lon="-2.2882528603"><ele>189.04</ele><time>2015-09-16T11:23:58Z</time></trkpt><trkpt lat="51.7113115825" lon="-2.2882621642"><ele>185.67</ele><time>2015-09-16T11:23:59Z</time></trkpt><trkpt lat="51.7112945672" lon="-2.2882673610"><ele>189.04</ele><time>2015-09-16T11:24:14Z</time></trkpt><trkpt lat="51.7113097385" lon="-2.2884257790"><ele>189.04</ele><time>2015-09-16T11:24:31Z</time></trkpt><trkpt lat="51.7112699244" lon="-2.2884949297"><ele>187.59</ele><time>2015-09-16T11:24:52Z</time></trkpt><trkpt lat="51.7112893704" lon="-2.2886205744"><ele>190.96</ele><time>2015-09-16T11:25:00Z</time></trkpt><trkpt lat="51.7113030329" lon="-2.2889141925"><ele>191.92</ele><time>2015-09-16T11:25:18Z</time></trkpt><trkpt lat="51.7113198806" lon="-2.2891653981"><ele>191.92</ele><time>2015-09-16T11:25:38Z</time></trkpt><trkpt lat="51.7113222275" lon="-2.2893068008"><ele>193.84</ele><time>2015-09-16T11:26:00Z</time></trkpt><trkpt lat="51.7113217246" lon="-2.2893246543"><ele>190.48</ele><time>2015-09-16T11:26:02Z</time></trkpt><trkpt lat="51.7113223113" lon="-2.2893337905"><ele>193.84</ele><time>2015-09-16T11:26:03Z</time></trkpt><trkpt lat="51.7113500554" lon="-2.2894856706"><ele>195.28</ele><time>2015-09-16T11:26:16Z</time></trkpt><trkpt lat="51.7113529891" lon="-2.2895550728"><ele>191.92</ele><time>2015-09-16T11:26:20Z</time></trkpt><trkpt lat="51.7113522347" lon="-2.2895640414"><ele>195.77</ele><time>2015-09-16T11:26:21Z</time></trkpt><trkpt lat="51.7113565095" lon="-2.2895730101"><ele>199.13</ele><time>2015-09-16T11:26:22Z</time></trkpt><trkpt lat="51.7113611195" lon="-2.2895838227"><ele>194.80</ele><time>2015-09-16T11:26:23Z</time></trkpt><trkpt lat="51.7114425916" lon="-2.2896366287"><ele>195.28</ele><time>2015-09-16T11:26:45Z</time></trkpt><trkpt lat="51.7114638817" lon="-2.2896432504"><ele>193.36</ele><time>2015-09-16T11:26:51Z</time></trkpt><trkpt lat="51.7114669830" lon="-2.2896442562"><ele>196.25</ele><time>2015-09-16T11:26:52Z</time></trkpt><trkpt lat="51.7114762031" lon="-2.2896471061"><ele>188.56</ele><time>2015-09-16T11:26:54Z</time></trkpt><trkpt lat="51.7114781309" lon="-2.2896476928"><ele>201.53</ele><time>2015-09-16T11:26:55Z</time></trkpt><trkpt lat="51.7114830762" lon="-2.2896492854"><ele>195.28</ele><time>2015-09-16T11:26:56Z</time></trkpt><trkpt lat="51.7114363052" lon="-2.2896438371"><ele>190.48</ele><time>2015-09-16T11:26:58Z</time></trkpt><trkpt lat="51.7114306893" lon="-2.2896510456"><ele>196.73</ele><time>2015-09-16T11:26:59Z</time></trkpt><trkpt lat="51.7114263307" lon="-2.2896593437"><ele>199.61</ele><time>2015-09-16T11:27:00Z</time></trkpt><trkpt lat="51.7114231456" lon="-2.2896663845"><ele>198.65</ele><time>2015-09-16T11:27:01Z</time></trkpt><trkpt lat="51.7114202958" lon="-2.2896736767"><ele>193.84</ele><time>2015-09-16T11:27:02Z</time></trkpt><trkpt lat="51.7114021070" lon="-2.2897229623"><ele>197.21</ele><time>2015-09-16T11:27:03Z</time></trkpt><trkpt lat="51.7113959044" lon="-2.2898049373"><ele>193.36</ele><time>2015-09-16T11:27:05Z</time></trkpt><trkpt lat="51.7113927193" lon="-2.2898294963"><ele>197.21</ele><time>2015-09-16T11:27:06Z</time></trkpt><trkpt lat="51.7113210540" lon="-2.2900084499"><ele>200.57</ele><time>2015-09-16T11:27:15Z</time></trkpt><trkpt lat="51.7113166116" lon="-2.2900211066"><ele>196.25</ele><time>2015-09-16T11:27:16Z</time></trkpt><trkpt lat="51.7113020271" lon="-2.2900399659"><ele>199.61</ele><time>2015-09-16T11:27:18Z</time></trkpt><trkpt lat="51.7113057151" lon="-2.2901083622"><ele>196.25</ele><time>2015-09-16T11:27:23Z</time></trkpt><trkpt lat="51.7113095708" lon="-2.2901376151"><ele>199.61</ele><time>2015-09-16T11:27:26Z</time></trkpt><trkpt lat="51.7112659011" lon="-2.2902219370"><ele>199.61</ele><time>2015-09-16T11:27:34Z</time></trkpt><trkpt lat="51.7112857662" lon="-2.2901078593"><ele>198.65</ele><time>2015-09-16T11:27:55Z</time></trkpt><trkpt lat="51.7112939805" lon="-2.2901947796"><ele>202.98</ele><time>2015-09-16T11:28:01Z</time></trkpt><trkpt lat="51.7112968303" lon="-2.2902050056"><ele>201.05</ele><time>2015-09-16T11:28:02Z</time></trkpt><trkpt lat="51.7113051284" lon="-2.2902257089"><ele>199.13</ele><time>2015-09-16T11:28:04Z</time></trkpt><trkpt lat="51.7113433499" lon="-2.2903040797"><ele>203.46</ele><time>2015-09-16T11:28:12Z</time></trkpt><trkpt lat="51.7113446072" lon="-2.2903114557"><ele>202.01</ele><time>2015-09-16T11:28:13Z</time></trkpt><trkpt lat="51.7112370674" lon="-2.2907113563"><ele>201.53</ele><time>2015-09-16T11:28:36Z</time></trkpt><trkpt lat="51.7112359777" lon="-2.2907172237"><ele>204.90</ele><time>2015-09-16T11:28:39Z</time></trkpt><trkpt lat="51.7112363130" lon="-2.2907230072"><ele>198.65</ele><time>2015-09-16T11:28:42Z</time></trkpt><trkpt lat="51.7112348042" lon="-2.2907445487"><ele>203.46</ele><time>2015-09-16T11:28:43Z</time></trkpt><trkpt lat="51.7112496402" lon="-2.2908739652"><ele>197.21</ele><time>2015-09-16T11:28:57Z</time></trkpt><trkpt lat="51.7112534959" lon="-2.2908935789"><ele>202.98</ele><time>2015-09-16T11:28:58Z</time></trkpt><trkpt lat="51.7112238239" lon="-2.2910092492"><ele>206.34</ele><time>2015-09-16T11:29:05Z</time></trkpt><trkpt lat="51.7112218123" lon="-2.2910199780"><ele>206.82</ele><time>2015-09-16T11:29:06Z</time></trkpt><trkpt lat="51.7112198006" lon="-2.2910321318"><ele>201.53</ele><time>2015-09-16T11:29:07Z</time></trkpt><trkpt lat="51.7112151068" lon="-2.2910454590"><ele>203.94</ele><time>2015-09-16T11:29:08Z</time></trkpt><trkpt lat="51.7111576907" lon="-2.2912009433"><ele>207.78</ele><time>2015-09-16T11:29:28Z</time></trkpt><trkpt lat="51.7111645639" lon="-2.2911987640"><ele>204.42</ele><time>2015-09-16T11:29:30Z</time></trkpt><trkpt lat="51.7111663241" lon="-2.2912057210"><ele>207.78</ele><time>2015-09-16T11:29:34Z</time></trkpt><trkpt lat="51.7111738678" lon="-2.2912084870"><ele>202.98</ele><time>2015-09-16T11:29:35Z</time></trkpt><trkpt lat="51.7111856025" lon="-2.2912564315"><ele>205.86</ele><time>2015-09-16T11:29:41Z</time></trkpt><trkpt lat="51.7111612950" lon="-2.2912801523"><ele>202.98</ele><time>2015-09-16T11:29:43Z</time></trkpt><trkpt lat="51.7111599538" lon="-2.2912899591"><ele>205.86</ele><time>2015-09-16T11:29:44Z</time></trkpt><trkpt lat="51.7111558467" lon="-2.2913043760"><ele>209.22</ele><time>2015-09-16T11:29:45Z</time></trkpt><trkpt lat="51.7111535836" lon="-2.2913184576"><ele>203.46</ele><time>2015-09-16T11:29:46Z</time></trkpt><trkpt lat="51.7111539189" lon="-2.2913320363"><ele>206.34</ele><time>2015-09-16T11:29:47Z</time></trkpt><trkpt lat="51.7111452017" lon="-2.2914128378"><ele>203.46</ele><time>2015-09-16T11:29:53Z</time></trkpt><trkpt lat="51.7111409269" lon="-2.2914278414"><ele>204.90</ele><time>2015-09-16T11:29:54Z</time></trkpt><trkpt lat="51.7111489736" lon="-2.2914475389"><ele>207.30</ele><time>2015-09-16T11:29:56Z</time></trkpt><trkpt lat="51.7112177890" lon="-2.2916558292"><ele>208.26</ele><time>2015-09-16T11:30:18Z</time></trkpt><trkpt lat="51.7112181243" lon="-2.2916496266"><ele>202.49</ele><time>2015-09-16T11:30:23Z</time></trkpt><trkpt lat="51.7112177052" lon="-2.2916479502"><ele>207.78</ele><time>2015-09-16T11:30:24Z</time></trkpt><trkpt lat="51.7111338861" lon="-2.2917559091"><ele>209.22</ele><time>2015-09-16T11:30:36Z</time></trkpt><trkpt lat="51.7111574393" lon="-2.2917640395"><ele>208.74</ele><time>2015-09-16T11:30:52Z</time></trkpt><trkpt lat="51.7111673299" lon="-2.2917683143"><ele>212.11</ele><time>2015-09-16T11:30:57Z</time></trkpt><trkpt lat="51.7111674976" lon="-2.2917695716"><ele>206.82</ele><time>2015-09-16T11:30:58Z</time></trkpt><trkpt lat="51.7111675814" lon="-2.2917709965"><ele>207.78</ele><time>2015-09-16T11:30:59Z</time></trkpt><trkpt lat="51.7111985106" lon="-2.2919394728"><ele>210.67</ele><time>2015-09-16T11:31:08Z</time></trkpt><trkpt lat="51.7112097424" lon="-2.2919584997"><ele>210.67</ele><time>2015-09-16T11:31:09Z</time></trkpt><trkpt lat="51.7112523224" lon="-2.2921287362"><ele>211.63</ele><time>2015-09-16T11:31:24Z</time></trkpt><trkpt lat="51.7112533282" lon="-2.2921679635"><ele>210.67</ele><time>2015-09-16T11:31:26Z</time></trkpt><trkpt lat="51.7112591118" lon="-2.2922955360"><ele>211.63</ele><time>2015-09-16T11:31:49Z</time></trkpt><trkpt lat="51.7112580221" lon="-2.2923493478"><ele>212.59</ele><time>2015-09-16T11:31:53Z</time></trkpt><trkpt lat="51.7112975009" lon="-2.2925119568"><ele>213.07</ele><time>2015-09-16T11:32:15Z</time></trkpt><trkpt lat="51.7113360576" lon="-2.2925541177"><ele>203.94</ele><time>2015-09-16T11:32:21Z</time></trkpt><trkpt lat="51.7113437690" lon="-2.2925640922"><ele>214.99</ele><time>2015-09-16T11:32:22Z</time></trkpt><trkpt lat="51.7113368120" lon="-2.2925888188"><ele>208.74</ele><time>2015-09-16T11:32:29Z</time></trkpt><trkpt lat="51.7113247421" lon="-2.2925883159"><ele>213.55</ele><time>2015-09-16T11:32:30Z</time></trkpt><trkpt lat="51.7113054637" lon="-2.2925946023"><ele>208.26</ele><time>2015-09-16T11:32:32Z</time></trkpt><trkpt lat="51.7113010213" lon="-2.2926063370"><ele>212.11</ele><time>2015-09-16T11:32:33Z</time></trkpt><trkpt lat="51.7113006022" lon="-2.2926193289"><ele>207.78</ele><time>2015-09-16T11:32:34Z</time></trkpt><trkpt lat="51.7112993449" lon="-2.2926243581"><ele>216.43</ele><time>2015-09-16T11:32:35Z</time></trkpt><trkpt lat="51.7112995964" lon="-2.2926215921"><ele>213.07</ele><time>2015-09-16T11:32:36Z</time></trkpt><trkpt lat="51.7113042902" lon="-2.2926162276"><ele>216.43</ele><time>2015-09-16T11:32:40Z</time></trkpt><trkpt lat="51.7113025300" lon="-2.2926103603"><ele>213.55</ele><time>2015-09-16T11:32:45Z</time></trkpt><trkpt lat="51.7112736963" lon="-2.2926189937"><ele>216.43</ele><time>2015-09-16T11:32:50Z</time></trkpt><trkpt lat="51.7112635542" lon="-2.2926178202"><ele>216.43</ele><time>2015-09-16T11:32:51Z</time></trkpt><trkpt lat="51.7112416774" lon="-2.2926186584"><ele>214.99</ele><time>2015-09-16T11:32:53Z</time></trkpt><trkpt lat="51.7111836746" lon="-2.2926297225"><ele>213.55</ele><time>2015-09-16T11:33:02Z</time></trkpt><trkpt lat="51.7111681681" lon="-2.2926334105"><ele>217.40</ele><time>2015-09-16T11:33:05Z</time></trkpt><trkpt lat="51.7111654021" lon="-2.2926351707"><ele>213.07</ele><time>2015-09-16T11:33:06Z</time></trkpt><trkpt lat="51.7111614626" lon="-2.2926371824"><ele>216.43</ele><time>2015-09-16T11:33:07Z</time></trkpt><trkpt lat="51.7110605445" lon="-2.2925850470"><ele>215.95</ele><time>2015-09-16T11:33:24Z</time></trkpt><trkpt lat="51.7110594548" lon="-2.2926593944"><ele>219.80</ele><time>2015-09-16T11:33:29Z</time></trkpt><trkpt lat="51.7110652383" lon="-2.2926840372"><ele>215.47</ele><time>2015-09-16T11:33:31Z</time></trkpt><trkpt lat="51.7110665794" lon="-2.2926968616"><ele>217.88</ele><time>2015-09-16T11:33:32Z</time></trkpt><trkpt lat="51.7110860255" lon="-2.2927298862"><ele>217.40</ele><time>2015-09-16T11:33:53Z</time></trkpt><trkpt lat="51.7111037951" lon="-2.2927157208"><ele>217.88</ele><time>2015-09-16T11:34:14Z</time></trkpt></trkseg></trk></gpx>